createdAt,value
2017-06-08T00:00:02.749Z,0
2017-06-08T00:05:03.010Z,0
2017-06-08T00:10:02.463Z,0
2017-06-08T00:15:02.962Z,0
2017-06-08T00:20:02.339Z,0
2017-06-08T00:25:02.692Z,0
2017-06-08T00:30:03.059Z,0
2017-06-08T00:35:02.397Z,0
2017-06-08T00:40:02.843Z,0
2017-06-08T00:45:03.246Z,0
2017-06-08T00:50:02.563Z,0
2017-06-08T00:55:03.206Z,0
2017-06-08T01:00:02.579Z,0
2017-06-08T01:05:02.901Z,0
2017-06-08T01:10:02.555Z,0
2017-06-08T01:15:03.032Z,0
2017-06-08T01:20:02.390Z,0
2017-06-08T01:25:02.831Z,0
2017-06-08T01:30:03.172Z,0
2017-06-08T01:35:02.429Z,0
2017-06-08T01:40:02.944Z,0
2017-06-08T01:45:02.425Z,0
2017-06-08T01:50:02.825Z,0
2017-06-08T01:55:03.200Z,0
2017-06-08T02:00:02.587Z,0
2017-06-08T02:05:02.980Z,0
2017-06-08T02:10:02.597Z,0
2017-06-08T02:15:03.046Z,0
2017-06-08T02:20:02.585Z,0
2017-06-08T02:25:02.804Z,0
2017-06-08T02:30:03.185Z,0
2017-06-08T02:35:02.501Z,0
2017-06-08T02:40:02.975Z,2
2017-06-08T02:45:03.416Z,4
2017-06-08T02:50:02.678Z,5
2017-06-08T02:55:03.233Z,12
2017-06-08T03:00:02.520Z,17
2017-06-08T03:05:02.941Z,26
2017-06-08T03:10:02.292Z,33
2017-06-08T03:15:02.790Z,38
2017-06-08T03:20:03.050Z,43
2017-06-08T03:25:02.590Z,53
2017-06-08T03:30:02.968Z,57
2017-06-08T03:35:02.346Z,78
2017-06-08T03:40:02.742Z,134
2017-06-08T03:45:03.132Z,103
2017-06-08T03:50:02.434Z,120
2017-06-08T03:55:02.971Z,130
2017-06-08T04:00:03.255Z,132
2017-06-08T04:05:02.800Z,127
2017-06-08T04:10:03.268Z,252
2017-06-08T04:15:02.587Z,265
2017-06-08T04:20:03.014Z,250
2017-06-08T04:25:02.368Z,329
2017-06-08T04:30:02.738Z,400
2017-06-08T04:35:03.080Z,476
2017-06-08T04:40:02.421Z,463
2017-06-08T04:45:02.709Z,521
2017-06-08T04:50:03.122Z,650
2017-06-08T04:55:02.381Z,1000
2017-06-08T05:00:02.819Z,1000
2017-06-08T05:05:03.225Z,1000
2017-06-08T05:10:02.846Z,1000
2017-06-08T05:15:03.166Z,1000
2017-06-08T05:20:02.676Z,1000
2017-06-08T05:25:03.103Z,1000
2017-06-08T05:30:02.524Z,1000
2017-06-08T05:35:02.965Z,1000
2017-06-08T05:40:03.435Z,2000
2017-06-08T05:45:02.715Z,1000
2017-06-08T05:50:03.247Z,1000
2017-06-08T05:55:02.574Z,1000
2017-06-08T06:00:02.921Z,2000
2017-06-08T06:05:03.351Z,2000
2017-06-08T06:10:02.787Z,2000
2017-06-08T06:15:03.136Z,4000
2017-06-08T06:20:02.415Z,5000
2017-06-08T06:25:02.883Z,6000
2017-06-08T06:30:03.248Z,4000
2017-06-08T06:35:02.537Z,3000
2017-06-08T06:40:03.014Z,5000
2017-06-08T06:45:03.446Z,4000
2017-06-08T06:50:02.880Z,4000
2017-06-08T06:55:03.282Z,4000
2017-06-08T07:00:02.655Z,5000
2017-06-08T07:05:03.260Z,5000
2017-06-08T07:10:02.711Z,7000
2017-06-08T07:15:03.059Z,6000
2017-06-08T07:20:02.556Z,6000
2017-06-08T07:25:02.923Z,7000
2017-06-08T07:30:03.437Z,9000
2017-06-08T07:35:02.891Z,8000
2017-06-08T07:40:02.496Z,9000
2017-06-08T07:45:03.095Z,10000
2017-06-08T07:50:02.520Z,10000
2017-06-08T07:55:02.912Z,10000
2017-06-08T08:00:03.253Z,9000
2017-06-08T08:05:02.586Z,8000
2017-06-08T08:10:03.029Z,10000
2017-06-08T08:15:02.399Z,10000
2017-06-08T08:20:02.665Z,9000
2017-06-08T08:25:03.097Z,8000
2017-06-08T08:30:02.676Z,7000
2017-06-08T08:35:03.067Z,7000
2017-06-08T08:40:02.461Z,8000
2017-06-08T08:45:02.946Z,8000
2017-06-08T08:50:03.246Z,7000
2017-06-08T08:55:02.484Z,8000
2017-06-08T09:00:02.947Z,9000
2017-06-08T09:05:03.197Z,13000
2017-06-08T09:10:02.917Z,13000
2017-06-08T09:15:02.478Z,13000
2017-06-08T09:20:03.064Z,15000
2017-06-08T09:25:02.620Z,23000
2017-06-08T09:30:03.066Z,11000
2017-06-08T09:35:02.394Z,10000
2017-06-08T09:40:02.898Z,12000
2017-06-08T09:45:02.504Z,15000
2017-06-08T09:50:03.015Z,15000
2017-06-08T09:55:03.298Z,12000
2017-06-08T10:00:02.641Z,11000
2017-06-08T10:05:03.051Z,11000
2017-06-08T10:10:02.466Z,10000
2017-06-08T10:15:03.009Z,10000
2017-06-08T10:20:02.370Z,12000
2017-06-08T10:25:02.866Z,12000
2017-06-08T10:30:02.683Z,12000
2017-06-08T10:35:03.244Z,10000
2017-06-08T10:40:02.832Z,14000
2017-06-08T10:45:02.609Z,17000
2017-06-08T10:50:02.942Z,22000
2017-06-08T10:55:02.665Z,35000
2017-06-08T11:00:02.450Z,15000
2017-06-08T11:05:02.905Z,38000
2017-06-08T11:10:02.562Z,30000
2017-06-08T11:15:02.638Z,24000
2017-06-08T11:20:03.100Z,49000
2017-06-08T11:25:02.751Z,26000
2017-06-08T11:30:03.043Z,20000
2017-06-08T11:35:02.802Z,22000
2017-06-08T11:40:02.821Z,50000
2017-06-08T11:45:02.670Z,28000
2017-06-08T11:50:02.654Z,21000
2017-06-08T11:55:02.435Z,19000
2017-06-08T12:00:03.342Z,18000
2017-06-08T12:05:02.720Z,17000
2017-06-08T12:10:03.059Z,22000
2017-06-08T12:15:02.957Z,19000
2017-06-08T12:20:02.962Z,17000
2017-06-08T12:25:03.201Z,20000
2017-06-08T12:30:02.999Z,30000
2017-06-08T12:35:02.800Z,27000
2017-06-08T12:40:03.444Z,16000
2017-06-08T12:45:02.968Z,17000
2017-06-08T12:50:02.872Z,19000
2017-06-08T12:55:02.773Z,37000
2017-06-08T13:00:02.778Z,25000
2017-06-08T13:05:02.908Z,19000
2017-06-08T13:10:03.300Z,28000
2017-06-08T13:15:03.311Z,37000
2017-06-08T13:20:03.179Z,33000
2017-06-08T13:25:03.248Z,33000
2017-06-08T13:30:02.339Z,33000
2017-06-08T13:35:03.121Z,32000
2017-06-08T13:40:02.385Z,28000
2017-06-08T13:45:03.004Z,28000
2017-06-08T13:50:02.503Z,14000
2017-06-08T13:55:02.511Z,20000
2017-06-08T14:00:03.314Z,19000
2017-06-08T14:05:03.295Z,25000
2017-06-08T14:10:02.821Z,16000
2017-06-08T14:15:02.466Z,28000
2017-06-08T14:20:02.827Z,33000
2017-06-08T14:25:02.879Z,30000
2017-06-08T14:30:02.965Z,29000
2017-06-08T14:35:02.566Z,22000
2017-06-08T14:40:02.395Z,18000
2017-06-08T14:45:03.362Z,19000
2017-06-08T14:50:03.032Z,21000
2017-06-08T14:55:02.787Z,11000
2017-06-08T15:00:02.979Z,14000
2017-06-08T15:05:02.387Z,18000
2017-06-08T15:10:02.461Z,19000
2017-06-08T15:15:02.933Z,17000
2017-06-08T15:20:02.658Z,13000
2017-06-08T15:25:03.228Z,14000
2017-06-08T15:30:03.029Z,17000
2017-06-08T15:35:02.352Z,10000
2017-06-08T15:40:02.350Z,8000
2017-06-08T15:45:02.576Z,12000
2017-06-08T15:50:02.770Z,16000
2017-06-08T15:55:02.469Z,23000
2017-06-08T16:00:02.582Z,17000
2017-06-08T16:05:02.700Z,13000
2017-06-08T16:10:02.835Z,16000
2017-06-08T16:15:02.448Z,16000
2017-06-08T16:20:02.361Z,5000
2017-06-08T16:25:02.771Z,5000
2017-06-08T16:30:02.594Z,5000
2017-06-08T16:35:03.171Z,5000
2017-06-08T16:40:03.062Z,6000
2017-06-08T16:45:02.840Z,7000
2017-06-08T16:50:03.271Z,11000
2017-06-08T16:55:02.902Z,3000
2017-06-08T17:00:02.459Z,3000
2017-06-08T17:05:02.779Z,3000
2017-06-08T17:10:02.364Z,11000
2017-06-08T17:15:02.892Z,3000
2017-06-08T17:20:03.297Z,3000
2017-06-08T17:25:02.660Z,10000
2017-06-08T17:30:03.184Z,4000
2017-06-08T17:35:02.646Z,11000
2017-06-08T17:40:03.086Z,3000
2017-06-08T17:45:02.534Z,7000
2017-06-08T17:50:02.893Z,6000
2017-06-08T17:55:03.183Z,4000
2017-06-08T18:00:02.536Z,5000
2017-06-08T18:05:02.853Z,5000
2017-06-08T18:10:02.636Z,4000
2017-06-08T18:15:02.431Z,4000
2017-06-08T18:20:02.770Z,2000
2017-06-08T18:25:02.511Z,2000
2017-06-08T18:30:03.208Z,1000
2017-06-08T18:35:03.129Z,1000
2017-06-08T18:40:03.170Z,2000
2017-06-08T18:45:02.669Z,1000
2017-06-08T18:50:02.492Z,2000
2017-06-08T18:55:02.455Z,2000
2017-06-08T19:00:02.412Z,1000
2017-06-08T19:05:02.371Z,1000
2017-06-08T19:10:03.153Z,820
2017-06-08T19:15:03.038Z,699
2017-06-08T19:20:02.865Z,591
2017-06-08T19:25:02.622Z,489
2017-06-08T19:30:02.362Z,436
2017-06-08T19:35:03.071Z,350
2017-06-08T19:40:03.176Z,275
2017-06-08T19:45:02.701Z,145
2017-06-08T19:50:03.231Z,78
2017-06-08T19:55:02.665Z,63
2017-06-08T20:00:03.109Z,52
2017-06-08T20:05:02.558Z,36
2017-06-08T20:10:03.056Z,24
2017-06-08T20:15:02.493Z,14
2017-06-08T20:20:02.919Z,8
2017-06-08T20:25:02.811Z,5
2017-06-08T20:30:02.541Z,3
2017-06-08T20:35:02.483Z,1
2017-06-08T20:40:03.087Z,0
2017-06-08T20:45:02.585Z,0
2017-06-08T20:50:02.694Z,0
2017-06-08T20:55:03.184Z,0
2017-06-08T21:00:03.108Z,0
2017-06-08T21:05:02.544Z,0
2017-06-08T21:10:02.970Z,0
2017-06-08T21:15:03.454Z,0
2017-06-08T21:20:02.758Z,0
2017-06-08T21:25:03.272Z,0
2017-06-08T21:30:02.825Z,0
2017-06-08T21:35:03.215Z,0
2017-06-08T21:40:02.479Z,0
2017-06-08T21:45:02.998Z,0
2017-06-08T21:50:02.369Z,0
2017-06-08T21:55:02.530Z,0
2017-06-08T22:00:02.545Z,0
2017-06-08T22:05:02.989Z,0
2017-06-08T22:10:02.423Z,0
2017-06-08T22:15:02.708Z,0
2017-06-08T22:20:03.125Z,0
2017-06-08T22:25:02.552Z,0
2017-06-08T22:30:02.934Z,0
2017-06-08T22:35:02.301Z,0
2017-06-08T22:40:02.779Z,0
2017-06-08T22:45:03.104Z,0
2017-06-08T22:50:02.423Z,0
2017-06-08T22:55:02.865Z,0
2017-06-08T23:00:03.212Z,0
2017-06-08T23:05:02.690Z,0
2017-06-08T23:10:03.210Z,0
2017-06-08T23:15:02.558Z,0
2017-06-08T23:20:02.856Z,0
2017-06-08T23:25:02.312Z,0
2017-06-08T23:30:02.580Z,0
2017-06-08T23:35:02.900Z,0
2017-06-08T23:40:02.361Z,0
2017-06-08T23:45:02.719Z,0
2017-06-08T23:50:03.137Z,0
2017-06-08T23:55:02.435Z,0
